Time;durP1;ratioP1;P1;durP2;ratioP2;P2;SDS_P1;SDS_P2;PMS_P1;PMS_P2;Temp;Humidity;BMP_temperature;BMP_pressure;BME280_temperature;BME280_humidity;BME280_pressure;Samples;Min_cycle;Max_cycle;Signal;HPM_P1;HPM_P2
2022/07/21 00:01:32;;;;;;;10.45;4.47;;;20.80;99.90;;;;;;5058378;28;20099;-81
2022/07/21 00:03:57;;;;;;;13.77;4.90;;;20.80;99.90;;;;;;5019651;28;20045;-81
2022/07/21 00:06:23;;;;;;;10.18;4.93;;;20.70;99.90;;;;;;5044356;28;20049;-81
2022/07/21 00:08:49;;;;;;;14.05;5.53;;;20.80;99.90;;;;;;5057394;28;20056;-81
2022/07/21 00:11:14;;;;;;;12.18;4.85;;;20.70;99.90;;;;;;5036760;28;20052;-81
2022/07/21 00:13:40;;;;;;;11.48;5.72;;;20.80;99.90;;;;;;5052173;28;20070;-81
2022/07/21 00:16:06;;;;;;;11.18;5.28;;;20.80;99.90;;;;;;5038777;28;20131;-81
2022/07/21 00:18:31;;;;;;;14.30;5.05;;;20.70;99.90;;;;;;5038928;28;20136;-82
2022/07/21 00:20:58;;;;;;;14.48;5.97;;;20.70;99.90;;;;;;5043544;28;20095;-82
2022/07/21 00:23:24;;;;;;;12.88;5.63;;;20.60;99.90;;;;;;5049578;28;20053;-81
2022/07/21 00:25:51;;;;;;;9.60;5.43;;;20.60;99.90;;;;;;5036721;28;20127;-81
2022/07/21 00:28:17;;;;;;;10.60;5.72;;;20.50;99.90;;;;;;5024814;28;20053;-81
2022/07/21 00:30:43;;;;;;;9.85;5.25;;;20.50;99.90;;;;;;5042656;28;20106;-82
2022/07/21 00:33:08;;;;;;;16.98;6.50;;;20.60;99.90;;;;;;5033796;28;20053;-82
2022/07/21 00:35:34;;;;;;;10.02;6.18;;;20.50;99.90;;;;;;5051107;28;20136;-82
2022/07/21 00:37:59;;;;;;;13.60;6.00;;;20.50;99.90;;;;;;5033123;28;20045;-82
2022/07/21 00:40:25;;;;;;;11.60;6.03;;;20.50;99.90;;;;;;5032872;28;20041;-82
2022/07/21 00:42:51;;;;;;;13.70;6.30;;;20.50;99.90;;;;;;5039708;28;20037;-82
2022/07/21 00:45:17;;;;;;;11.60;6.63;;;20.70;99.90;;;;;;5038547;28;20400;-81
2022/07/21 00:47:43;;;;;;;14.32;7.57;;;20.50;99.90;;;;;;5021637;28;20401;-81
2022/07/21 00:50:15;;;;;;;15.35;7.45;;;20.50;99.90;;;;;;5035371;28;20485;-81
2022/07/21 00:52:41;;;;;;;11.90;7.32;;;20.50;99.90;;;;;;5046046;28;20412;-81
2022/07/21 00:55:10;;;;;;;13.80;6.60;;;20.50;99.90;;;;;;5034586;28;20086;-82
2022/07/21 00:57:36;;;;;;;13.38;6.85;;;20.40;99.90;;;;;;5036337;28;20489;-81
2022/07/21 01:00:09;;;;;;;12.75;6.97;;;20.30;99.90;;;;;;5037866;28;20033;-81
2022/07/21 01:02:36;;;;;;;12.77;7.60;;;20.30;99.90;;;;;;5043237;28;20171;-81
2022/07/21 01:05:05;;;;;;;12.70;7.00;;;20.20;99.90;;;;;;5049359;28;20048;-81
2022/07/21 01:07:31;;;;;;;15.27;6.82;;;20.20;99.90;;;;;;5044474;28;20057;-81
2022/07/21 01:09:57;;;;;;;13.65;6.75;;;20.20;99.90;;;;;;5049388;28;20143;-81
2022/07/21 01:12:23;;;;;;;12.20;7.93;;;20.20;99.90;;;;;;5050421;28;20072;-81
2022/07/21 01:14:50;;;;;;;11.85;7.20;;;20.20;99.90;;;;;;5059991;28;20149;-81
2022/07/21 01:17:15;;;;;;;13.38;7.53;;;20.10;99.90;;;;;;5032688;28;20041;-81
2022/07/21 01:19:42;;;;;;;12.10;7.72;;;20.20;99.90;;;;;;5043474;28;20396;-81
2022/07/21 01:22:07;;;;;;;13.70;8.23;;;20.10;99.90;;;;;;5044889;28;20124;-81
2022/07/21 01:24:33;;;;;;;12.55;8.50;;;20.10;99.90;;;;;;5034290;28;20127;-81
2022/07/21 01:26:59;;;;;;;15.65;8.43;;;20.00;99.90;;;;;;5059962;28;20098;-81
2022/07/21 01:29:24;;;;;;;13.75;7.68;;;20.00;99.90;;;;;;5025595;28;20505;-81
2022/07/21 01:31:50;;;;;;;10.80;7.65;;;20.00;99.90;;;;;;5031877;28;20070;-81
2022/07/21 01:34:17;;;;;;;13.45;8.70;;;20.00;99.90;;;;;;5020290;28;20099;-81
2022/07/21 01:36:43;;;;;;;15.40;9.00;;;20.00;99.90;;;;;;5034015;28;20500;-81
2022/07/21 01:41:53;;;;;;;13.55;9.00;;;20.00;99.90;;;;;;5030740;28;20053;-81
2022/07/21 01:44:19;;;;;;;15.20;8.73;;;20.00;99.90;;;;;;5041886;28;20378;-81
2022/07/21 01:46:49;;;;;;;17.23;9.60;;;19.90;99.90;;;;;;5031892;28;20502;-80
2022/07/21 01:49:16;;;;;;;15.38;8.77;;;20.00;99.90;;;;;;5032076;28;20041;-80
2022/07/21 01:51:41;;;;;;;16.10;9.02;;;20.00;99.90;;;;;;5037249;28;20053;-80
2022/07/21 01:54:08;;;;;;;17.17;9.48;;;19.90;99.90;;;;;;5044849;28;20049;-80
2022/07/21 01:56:35;;;;;;;15.68;9.45;;;20.20;99.90;;;;;;5031903;28;20054;-81
2022/07/21 01:59:00;;;;;;;17.33;8.80;;;19.90;99.90;;;;;;5022362;28;20053;-81
2022/07/21 02:01:28;;;;;;;18.27;8.73;;;19.90;99.90;;;;;;5048840;28;20049;-81
2022/07/21 02:03:55;;;;;;;17.60;9.05;;;19.90;99.90;;;;;;5032778;28;20057;-81
2022/07/21 02:06:21;;;;;;;15.30;9.70;;;20.10;99.90;;;;;;5031207;28;20048;-81
2022/07/21 02:08:47;;;;;;;13.27;8.73;;;19.90;99.90;;;;;;5042533;28;20052;-81
2022/07/21 02:11:15;;;;;;;16.52;9.75;;;19.80;99.90;;;;;;5041105;28;20045;-80
2022/07/21 02:13:41;;;;;;;14.32;9.65;;;19.80;99.90;;;;;;5039971;28;20052;-80
2022/07/21 02:16:08;;;;;;;16.35;9.77;;;19.80;99.90;;;;;;5033470;28;20481;-80
2022/07/21 02:18:34;;;;;;;14.85;9.35;;;19.80;99.90;;;;;;5038549;28;20056;-80
2022/07/21 02:20:59;;;;;;;16.88;9.80;;;19.70;99.90;;;;;;5045201;28;20049;-80
2022/07/21 02:23:26;;;;;;;18.27;11.45;;;19.70;99.90;;;;;;5045035;28;20045;-80
2022/07/21 02:25:53;;;;;;;17.70;10.25;;;19.70;99.90;;;;;;5049584;28;20503;-80
2022/07/21 02:28:19;;;;;;;15.50;10.80;;;19.60;99.90;;;;;;5049187;28;20045;-80
2022/07/21 02:30:46;;;;;;;15.15;10.13;;;19.60;99.90;;;;;;5037966;28;20045;-80
2022/07/21 02:33:11;;;;;;;18.88;11.25;;;19.60;99.90;;;;;;5031057;28;20091;-80
2022/07/21 02:35:37;;;;;;;16.92;10.73;;;19.60;99.90;;;;;;5042928;28;20046;-80
2022/07/21 02:38:03;;;;;;;16.52;10.07;;;19.60;99.90;;;;;;5030848;28;20488;-80
2022/07/21 02:40:29;;;;;;;15.70;10.18;;;19.50;99.90;;;;;;5031317;28;20052;-80
2022/07/21 02:42:55;;;;;;;17.02;11.27;;;19.50;99.90;;;;;;5048996;28;20485;-80
2022/07/21 02:45:21;;;;;;;15.27;11.15;;;19.60;99.90;;;;;;5032176;28;20045;-81
2022/07/21 02:47:57;;;;;;;16.48;11.15;;;19.50;99.90;;;;;;5031325;28;20041;-81
2022/07/21 02:50:26;;;;;;;18.63;11.38;;;19.40;99.90;;;;;;5030431;28;20315;-81
2022/07/21 02:52:57;;;;;;;15.90;11.35;;;19.40;99.90;;;;;;5020786;28;20049;-81
2022/07/21 02:55:23;;;;;;;17.42;11.40;;;19.60;99.90;;;;;;5028988;28;20049;-81
2022/07/21 02:57:49;;;;;;;17.27;11.40;;;19.50;99.90;;;;;;5041792;28;20484;-80
2022/07/21 03:00:15;;;;;;;16.88;12.30;;;19.60;99.90;;;;;;5060433;28;20057;-80
2022/07/21 03:02:40;;;;;;;16.85;12.18;;;19.60;99.90;;;;;;5030842;28;20041;-80
2022/07/21 03:05:07;;;;;;;14.73;11.40;;;19.60;99.90;;;;;;5061576;28;20057;-81
2022/07/21 03:07:32;;;;;;;18.02;11.63;;;19.60;99.90;;;;;;5033934;28;20056;-80
2022/07/21 03:09:58;;;;;;;15.32;11.38;;;19.60;99.90;;;;;;5028663;28;20041;-80
2022/07/21 03:12:23;;;;;;;17.50;12.18;;;19.60;99.90;;;;;;5040233;28;20481;-80
2022/07/21 03:14:49;;;;;;;15.35;12.02;;;19.60;99.90;;;;;;5049858;28;20480;-80
2022/07/21 03:17:14;;;;;;;16.40;12.35;;;19.60;99.90;;;;;;5031663;28;20038;-80
2022/07/21 03:19:40;;;;;;;16.08;11.68;;;19.60;99.90;;;;;;5039298;28;20045;-80
2022/07/21 03:22:06;;;;;;;18.58;12.32;;;19.60;99.90;;;;;;5034854;28;20041;-80
2022/07/21 03:24:31;;;;;;;15.18;11.80;;;19.60;99.90;;;;;;5040023;28;20071;-80
2022/07/21 03:26:57;;;;;;;14.38;12.02;;;19.90;99.90;;;;;;5027006;28;20048;-80
2022/07/21 03:29:23;;;;;;;19.58;12.60;;;19.60;99.90;;;;;;5033139;28;20069;-80
2022/07/21 03:31:49;;;;;;;17.83;12.68;;;19.60;99.90;;;;;;5059043;28;20055;-80
2022/07/21 03:34:14;;;;;;;16.42;12.55;;;19.60;99.90;;;;;;5036782;28;20128;-80
2022/07/21 03:36:40;;;;;;;17.98;12.50;;;19.60;99.90;;;;;;5012666;28;20405;-80
2022/07/21 03:39:06;;;;;;;18.55;12.00;;;19.60;99.90;;;;;;5028197;28;20380;-80
2022/07/21 03:41:31;;;;;;;19.58;12.63;;;19.60;99.90;;;;;;5031475;28;20096;-80
2022/07/21 03:43:57;;;;;;;16.33;12.40;;;19.60;99.90;;;;;;5044361;28;20457;-80
2022/07/21 03:46:23;;;;;;;14.13;11.32;;;19.50;99.90;;;;;;5032878;28;20049;-80
2022/07/21 03:48:49;;;;;;;16.48;12.32;;;19.60;99.90;;;;;;5047828;28;20041;-80
2022/07/21 03:51:14;;;;;;;18.25;12.45;;;19.60;99.90;;;;;;5031576;28;20136;-80
2022/07/21 03:53:40;;;;;;;15.32;12.30;;;19.50;99.90;;;;;;5036908;28;20041;-80
2022/07/21 03:56:06;;;;;;;14.23;10.73;;;19.60;99.90;;;;;;5030198;28;20045;-80
2022/07/21 03:58:31;;;;;;;17.48;12.13;;;19.50;99.90;;;;;;5034696;28;20492;-80
2022/07/21 04:00:57;;;;;;;16.67;12.63;;;19.50;99.90;;;;;;5046314;28;20028;-80
2022/07/21 04:03:22;;;;;;;15.88;11.50;;;19.50;99.90;;;;;;5041252;28;20057;-80
2022/07/21 04:05:48;;;;;;;16.15;12.68;;;19.50;99.90;;;;;;5027972;28;20056;-80
2022/07/21 04:08:14;;;;;;;15.07;11.18;;;19.50;99.90;;;;;;5015208;28;20045;-79
2022/07/21 04:10:41;;;;;;;19.20;12.02;;;19.40;99.90;;;;;;5041158;28;20075;-80
2022/07/21 04:13:09;;;;;;;16.17;11.38;;;19.40;99.90;;;;;;5036277;28;20045;-80
2022/07/21 04:15:35;;;;;;;14.95;10.30;;;19.40;99.90;;;;;;5041289;28;20045;-80
2022/07/21 04:18:02;;;;;;;18.25;12.32;;;19.30;99.90;;;;;;5030566;28;20049;-80
2022/07/21 04:20:27;;;;;;;16.40;11.88;;;19.30;99.90;;;;;;5039957;28;20041;-80
2022/07/21 04:22:53;;;;;;;15.60;11.32;;;19.30;99.90;;;;;;5045084;28;20033;-80
2022/07/21 04:25:19;;;;;;;17.52;12.45;;;19.30;99.90;;;;;;5051145;28;20048;-79
2022/07/21 04:27:46;;;;;;;14.07;11.13;;;19.30;99.90;;;;;;5034216;28;20497;-79
2022/07/21 04:30:15;;;;;;;15.07;12.00;;;19.20;99.90;;;;;;5038336;28;20037;-79
2022/07/21 04:32:41;;;;;;;15.10;11.43;;;19.30;99.90;;;;;;5035776;28;20049;-81
2022/07/21 04:35:07;;;;;;;16.00;12.57;;;19.30;99.90;;;;;;5040620;28;20128;-80
2022/07/21 04:37:33;;;;;;;15.90;12.27;;;19.20;99.90;;;;;;5053280;28;20154;-79
2022/07/21 04:39:59;;;;;;;14.98;11.25;;;19.20;99.90;;;;;;5045483;28;20496;-80
2022/07/21 04:42:25;;;;;;;14.60;11.13;;;19.20;99.90;;;;;;5026310;28;20052;-80
2022/07/21 04:44:51;;;;;;;16.35;13.02;;;19.20;99.90;;;;;;5018461;28;20829;-80
2022/07/21 04:47:16;;;;;;;18.77;12.98;;;19.20;99.90;;;;;;5015423;28;20508;-80
2022/07/21 04:49:42;;;;;;;19.85;14.90;;;19.30;99.90;;;;;;5035331;28;20120;-80
2022/07/21 04:52:07;;;;;;;20.05;13.57;;;19.30;99.90;;;;;;5059641;28;20049;-80
2022/07/21 04:54:33;;;;;;;19.00;14.57;;;19.30;99.90;;;;;;5060346;28;20044;-80
2022/07/21 04:57:02;;;;;;;19.05;14.80;;;19.30;99.90;;;;;;5034413;28;20124;-80
2022/07/21 04:59:29;;;;;;;21.08;15.40;;;19.30;99.90;;;;;;5032534;28;20056;-80
2022/07/21 05:01:54;;;;;;;19.17;14.75;;;19.40;99.90;;;;;;5023291;28;20055;-80
2022/07/21 05:04:20;;;;;;;21.73;17.83;;;19.60;99.90;;;;;;5044460;28;20128;-80
2022/07/21 05:06:45;;;;;;;21.77;17.75;;;19.40;99.90;;;;;;5037512;28;20140;-80
2022/07/21 05:09:11;;;;;;;21.90;18.45;;;19.40;99.90;;;;;;5040685;28;20094;-80
2022/07/21 05:11:36;;;;;;;23.85;19.55;;;19.40;99.90;;;;;;5052239;28;20085;-80
2022/07/21 05:14:02;;;;;;;24.45;19.45;;;19.40;99.90;;;;;;5015754;28;20091;-80
2022/07/21 05:16:29;;;;;;;21.77;18.45;;;19.60;99.90;;;;;;5032719;28;20037;-80
2022/07/21 05:18:54;;;;;;;29.20;20.88;;;19.50;99.90;;;;;;5042016;28;20127;-80
2022/07/21 05:21:20;;;;;;;26.63;21.55;;;19.60;99.90;;;;;;5045390;28;20429;-80
2022/07/21 05:23:45;;;;;;;25.65;20.27;;;19.50;99.90;;;;;;5036283;28;20037;-80
2022/07/21 05:26:12;;;;;;;28.50;23.17;;;19.60;99.90;;;;;;5035142;28;20408;-80
2022/07/21 05:28:38;;;;;;;27.00;21.48;;;19.60;99.90;;;;;;5058731;28;20064;-80
2022/07/21 05:31:03;;;;;;;27.08;22.65;;;19.60;99.90;;;;;;5037594;28;20049;-80
2022/07/21 05:33:29;;;;;;;28.58;21.55;;;19.60;99.90;;;;;;5033820;28;20052;-80
2022/07/21 05:35:55;;;;;;;28.52;23.08;;;19.70;99.90;;;;;;5050697;28;20084;-80
2022/07/21 05:38:20;;;;;;;32.10;23.70;;;19.70;99.90;;;;;;5039300;28;20050;-80
2022/07/21 05:40:47;;;;;;;30.33;23.55;;;19.80;99.90;;;;;;5045684;28;20128;-80
2022/07/21 05:43:12;;;;;;;32.58;23.98;;;19.90;99.90;;;;;;5047468;28;20049;-80
2022/07/21 05:45:38;;;;;;;27.65;21.67;;;19.80;99.90;;;;;;5031941;28;20041;-79
2022/07/21 05:48:04;;;;;;;28.70;22.50;;;19.90;99.90;;;;;;5033806;28;20184;-85
2022/07/21 05:50:29;;;;;;;27.92;22.30;;;20.00;99.90;;;;;;5040418;28;20045;-79
2022/07/21 05:52:55;;;;;;;29.98;22.83;;;20.00;99.90;;;;;;5055362;28;20480;-80
2022/07/21 05:55:21;;;;;;;31.25;23.85;;;20.10;99.90;;;;;;5047903;28;20041;-79
2022/07/21 05:57:46;;;;;;;29.50;23.83;;;20.10;99.90;;;;;;5049628;28;20164;-80
2022/07/21 06:00:13;;;;;;;27.48;23.92;;;20.10;99.90;;;;;;5058910;28;20063;-81
2022/07/21 06:02:39;;;;;;;27.63;23.63;;;20.20;99.90;;;;;;5051371;28;20579;-81
2022/07/21 06:05:07;;;;;;;31.55;23.98;;;20.20;99.90;;;;;;5029120;28;20064;-81
2022/07/21 06:07:32;;;;;;;30.40;24.40;;;20.20;99.90;;;;;;5017592;28;20064;-74
2022/07/21 06:09:59;;;;;;;35.97;22.65;;;20.40;99.90;;;;;;5032399;28;20397;-74
2022/07/21 06:12:25;;;;;;;30.58;23.65;;;20.30;99.90;;;;;;5036305;28;20827;-74
2022/07/21 06:14:50;;;;;;;29.65;25.02;;;20.50;99.90;;;;;;5039780;28;20045;-74
2022/07/21 06:17:16;;;;;;;29.42;24.95;;;20.60;99.90;;;;;;5033194;28;20557;-74
2022/07/21 06:19:41;;;;;;;31.80;25.50;;;20.70;99.90;;;;;;5043773;28;20041;-74
2022/07/21 06:22:07;;;;;;;24.15;21.08;;;20.70;99.90;;;;;;5030558;28;20042;-74
2022/07/21 06:24:32;;;;;;;29.98;23.88;;;20.80;99.90;;;;;;5046225;28;20090;-73
2022/07/21 06:26:58;;;;;;;27.63;23.92;;;20.80;99.90;;;;;;5033313;28;20401;-73
2022/07/21 06:29:24;;;;;;;26.90;21.63;;;20.90;99.90;;;;;;5036343;28;20500;-79
2022/07/21 06:31:50;;;;;;;27.95;23.23;;;21.20;99.90;;;;;;5037432;28;20044;-78
2022/07/21 06:34:16;;;;;;;33.92;25.45;;;21.10;99.90;;;;;;5035049;28;20053;-79
2022/07/21 06:36:41;;;;;;;26.65;22.15;;;21.10;99.90;;;;;;5031285;28;20417;-79
2022/07/21 06:39:07;;;;;;;30.85;24.17;;;21.10;99.90;;;;;;5018879;28;20045;-79
2022/07/21 06:41:33;;;;;;;31.50;22.95;;;21.00;99.90;;;;;;5017442;28;20099;-79
2022/07/21 06:43:58;;;;;;;29.05;24.83;;;20.90;99.90;;;;;;5013539;28;20038;-79
2022/07/21 06:46:24;;;;;;;28.50;24.20;;;20.80;99.90;;;;;;5030947;28;20048;-79
2022/07/21 06:48:50;;;;;;;33.75;27.83;;;20.70;99.90;;;;;;5015198;28;20426;-79
2022/07/21 06:51:15;;;;;;;29.85;24.63;;;20.70;99.90;;;;;;5031224;28;20120;-79
2022/07/21 06:53:42;;;;;;;32.20;24.38;;;20.80;99.90;;;;;;5013027;28;20071;-83
2022/07/21 06:56:07;;;;;;;27.85;22.88;;;20.70;99.90;;;;;;5049775;28;20047;-81
2022/07/21 06:58:34;;;;;;;27.92;23.45;;;21.00;99.90;;;;;;5035247;28;20048;-81
2022/07/21 07:00:59;;;;;;;27.52;23.50;;;20.80;99.90;;;;;;5042460;28;20056;-82
2022/07/21 07:03:25;;;;;;;25.77;22.25;;;20.60;99.90;;;;;;5030667;28;20037;-80
2022/07/21 07:05:51;;;;;;;24.88;22.15;;;20.60;99.90;;;;;;5050100;28;20040;-81
2022/07/21 07:08:17;;;;;;;31.13;23.38;;;20.50;99.90;;;;;;5031287;28;20045;-83
2022/07/21 07:10:43;;;;;;;26.30;21.75;;;20.50;99.90;;;;;;5024879;28;20102;-84
2022/07/21 07:13:10;;;;;;;25.35;21.92;;;20.80;99.90;;;;;;5042008;28;20569;-83
2022/07/21 07:15:37;;;;;;;27.83;22.20;;;20.50;99.90;;;;;;5037317;28;20092;-82
2022/07/21 07:18:02;;;;;;;31.15;23.52;;;20.40;99.90;;;;;;5038685;28;20037;-83
2022/07/21 07:20:28;;;;;;;28.55;23.35;;;20.40;99.90;;;;;;5059984;28;20056;-83
2022/07/21 07:22:53;;;;;;;23.42;20.33;;;20.40;99.90;;;;;;5039509;28;20571;-83
2022/07/21 07:25:19;;;;;;;26.50;22.80;;;20.40;99.90;;;;;;5032449;28;20064;-83
2022/07/21 07:27:47;;;;;;;26.00;22.13;;;20.40;99.90;;;;;;5049134;28;20071;-83
2022/07/21 07:30:13;;;;;;;25.67;22.55;;;20.50;99.90;;;;;;5050117;28;20041;-83
2022/07/21 07:32:42;;;;;;;29.60;24.38;;;20.50;99.90;;;;;;5032576;28;20863;-83
2022/07/21 07:35:09;;;;;;;28.65;23.35;;;20.60;99.90;;;;;;5015830;28;20056;-83
2022/07/21 07:37:37;;;;;;;31.45;24.95;;;20.50;99.90;;;;;;5032295;28;20488;-82
2022/07/21 07:40:09;;;;;;;29.05;24.67;;;20.50;99.90;;;;;;5032360;28;20120;-81
2022/07/21 07:42:35;;;;;;;26.67;23.48;;;20.50;99.90;;;;;;5050722;28;20444;-84
2022/07/21 07:45:01;;;;;;;28.55;22.52;;;20.60;99.90;;;;;;5042676;28;20049;-84
2022/07/21 07:47:27;;;;;;;29.17;25.35;;;20.60;99.90;;;;;;5016565;28;20049;-84
2022/07/21 07:49:53;;;;;;;30.10;25.92;;;20.70;99.90;;;;;;5037066;28;20134;-85
2022/07/21 07:52:19;;;;;;;27.60;24.48;;;20.80;99.90;;;;;;5058275;28;20118;-84
2022/07/21 07:54:45;;;;;;;29.65;24.13;;;20.70;99.90;;;;;;5043085;28;20533;-84
2022/07/21 07:57:11;;;;;;;31.45;25.95;;;20.80;99.90;;;;;;5055309;28;20133;-84
2022/07/21 07:59:36;;;;;;;32.63;25.92;;;20.80;99.90;;;;;;5052497;28;20056;-84
2022/07/21 08:02:02;;;;;;;31.08;24.05;;;20.80;99.90;;;;;;5043608;28;20037;-85
2022/07/21 08:04:27;;;;;;;30.65;26.50;;;20.90;99.90;;;;;;5058316;28;20114;-83
2022/07/21 08:06:53;;;;;;;29.35;25.52;;;20.80;99.90;;;;;;5024593;28;20048;-84
2022/07/21 08:09:19;;;;;;;27.42;22.80;;;20.80;99.90;;;;;;5054700;28;20123;-84
2022/07/21 08:11:46;;;;;;;31.30;25.65;;;20.80;99.90;;;;;;5053644;28;20080;-84
2022/07/21 08:14:15;;;;;;;32.22;26.15;;;20.80;99.90;;;;;;5044167;28;20038;-84
2022/07/21 08:16:41;;;;;;;26.83;23.05;;;20.90;99.90;;;;;;5054940;28;20078;-84
2022/07/21 08:19:08;;;;;;;33.97;25.83;;;20.90;99.90;;;;;;5067386;28;20041;-84
2022/07/21 08:21:34;;;;;;;32.38;24.98;;;20.80;99.90;;;;;;5050531;28;20549;-84
2022/07/21 08:24:00;;;;;;;30.30;25.52;;;20.90;99.90;;;;;;5036802;28;20052;-84
2022/07/21 08:26:26;;;;;;;30.85;25.27;;;21.00;99.90;;;;;;5040567;28;20037;-83
2022/07/21 08:28:53;;;;;;;31.42;26.65;;;21.10;99.90;;;;;;5057425;28;20029;-84
2022/07/21 08:31:19;;;;;;;33.67;27.55;;;21.10;99.90;;;;;;5036311;28;20061;-83
2022/07/21 08:33:44;;;;;;;30.77;24.65;;;21.10;99.90;;;;;;5049872;28;20049;-83
2022/07/21 08:36:10;;;;;;;30.55;25.85;;;21.20;99.90;;;;;;5059530;28;20041;-84
2022/07/21 08:38:36;;;;;;;29.42;24.58;;;21.30;99.90;;;;;;5034027;28;20098;-84
2022/07/21 08:41:02;;;;;;;29.98;24.90;;;21.40;99.90;;;;;;5044645;28;20520;-83
2022/07/21 08:43:28;;;;;;;29.65;23.73;;;21.60;99.90;;;;;;5041333;28;20041;-84
2022/07/21 08:45:54;;;;;;;27.92;22.63;;;21.60;99.90;;;;;;5061527;28;20124;-84
2022/07/21 08:48:24;;;;;;;30.27;23.13;;;21.80;99.90;;;;;;5035452;28;20139;-84
2022/07/21 08:50:50;;;;;;;33.58;25.15;;;22.20;99.90;;;;;;5034651;28;20386;-84
2022/07/21 08:53:16;;;;;;;28.92;23.23;;;22.10;99.90;;;;;;5053388;28;20041;-84
2022/07/21 08:55:41;;;;;;;29.45;22.85;;;22.20;99.90;;;;;;5046588;28;20096;-84
2022/07/21 08:58:09;;;;;;;29.88;23.85;;;22.40;99.90;;;;;;5068396;28;20098;-80
2022/07/21 09:00:36;;;;;;;28.45;22.70;;;22.40;99.90;;;;;;5064916;28;20053;-82
2022/07/21 09:03:29;;;;;;;26.45;22.13;;;22.40;99.90;;;;;;5052841;28;20041;-87
2022/07/21 09:06:07;;;;;;;29.05;21.77;;;22.40;99.90;;;;;;5061090;28;20132;-81
2022/07/21 09:08:54;;;;;;;28.95;23.25;;;22.50;99.90;;;;;;5073847;28;20442;-83
2022/07/21 09:11:25;;;;;;;22.63;19.05;;;23.00;99.90;;;;;;5031741;28;20049;-85
2022/07/21 09:14:12;;;;;;;27.42;22.80;;;22.90;99.90;;;;;;5051673;28;20525;-85
2022/07/21 09:16:47;;;;;;;28.15;22.88;;;23.30;99.90;;;;;;5050367;28;20492;-85
2022/07/21 09:19:28;;;;;;;;;;;23.60;99.90;;;;;;5034424;28;20077;-85
2022/07/21 09:21:57;;;;;;;25.33;20.05;;;23.60;99.90;;;;;;5044246;28;19924;-87
2022/07/21 09:24:28;;;;;;;25.10;21.83;;;23.70;99.90;;;;;;5051554;28;20041;-86
2022/07/21 09:27:01;;;;;;;27.45;23.13;;;23.70;99.90;;;;;;5057988;28;20060;-87
2022/07/21 09:29:38;;;;;;;27.10;23.25;;;24.00;99.90;;;;;;5051168;28;20045;-85
2022/07/21 09:32:18;;;;;;;24.08;21.02;;;24.00;99.90;;;;;;5035624;28;20076;-85
2022/07/21 09:34:46;;;;;;;22.73;20.23;;;24.00;99.90;;;;;;5019253;28;20064;-85
2022/07/21 09:37:12;;;;;;;23.85;20.20;;;24.00;99.90;;;;;;5015627;28;20045;-87
2022/07/21 09:39:41;;;;;;;23.80;20.45;;;24.10;99.90;;;;;;5018976;28;20584;-87
2022/07/21 09:42:15;;;;;;;23.90;20.33;;;24.30;99.90;;;;;;5054243;28;20044;-87
2022/07/21 09:44:46;;;;;;;22.83;19.50;;;24.50;99.90;;;;;;5015543;28;20129;-86
2022/07/21 09:47:14;;;;;;;22.02;18.35;;;24.10;99.90;;;;;;5041217;28;20574;-85
2022/07/21 09:49:40;;;;;;;21.48;19.15;;;24.20;99.90;;;;;;5069377;28;20122;-85
2022/07/21 09:52:37;;;;;;;24.48;20.90;;;23.90;99.90;;;;;;5039186;28;20041;-86
2022/07/21 09:55:10;;;;;;;21.20;18.80;;;24.30;99.90;;;;;;5016901;28;20390;-85
2022/07/21 09:57:36;;;;;;;24.73;22.13;;;24.20;99.90;;;;;;5032942;28;20461;-85
2022/07/21 10:00:12;;;;;;;23.77;20.80;;;24.00;99.90;;;;;;5049486;28;20029;-85
2022/07/21 10:02:38;;;;;;;27.05;20.85;;;24.20;99.90;;;;;;5060359;28;20036;-88
2022/07/21 10:05:07;;;;;;;24.00;20.90;;;24.20;99.90;;;;;;5035011;28;20516;-86
2022/07/21 10:07:37;;;;;;;25.55;21.88;;;24.20;99.90;;;;;;5041576;28;20060;-86
2022/07/21 10:10:03;;;;;;;26.02;23.05;;;24.20;99.90;;;;;;5051852;28;20129;-86
2022/07/21 10:12:29;;;;;;;22.08;19.60;;;24.10;99.90;;;;;;5055292;28;20052;-86
2022/07/21 10:14:55;;;;;;;29.33;24.25;;;23.80;99.90;;;;;;5050694;28;20041;-87
2022/07/21 10:17:23;;;;;;;29.30;23.80;;;23.90;99.90;;;;;;5050348;28;20045;-86
2022/07/21 10:20:09;;;;;;;27.55;23.55;;;23.90;99.90;;;;;;5047250;28;20088;-86
2022/07/21 10:22:57;;;;;;;27.45;23.83;;;23.90;99.90;;;;;;5044619;28;20121;-85
2022/07/21 10:25:23;;;;;;;30.90;24.63;;;23.80;99.90;;;;;;5047370;28;20072;-84
2022/07/21 10:28:11;;;;;;;29.88;23.90;;;23.70;99.90;;;;;;5044496;28;20051;-84
2022/07/21 10:30:38;;;;;;;31.27;25.10;;;23.60;99.90;;;;;;5056784;28;20042;-84
2022/07/21 10:33:04;;;;;;;36.15;27.63;;;23.40;99.90;;;;;;5014881;28;20064;-84
2022/07/21 10:35:31;;;;;;;29.88;24.98;;;23.40;99.90;;;;;;5031669;28;20045;-84
2022/07/21 10:37:58;;;;;;;33.83;27.50;;;23.30;99.90;;;;;;5013441;28;20041;-84
2022/07/21 10:40:24;;;;;;;33.97;27.77;;;23.30;99.90;;;;;;5029977;28;20136;-84
2022/07/21 10:42:58;;;;;;;38.15;30.33;;;23.30;99.90;;;;;;5044804;28;20116;-84
2022/07/21 10:45:38;;;;;;;33.83;27.67;;;23.20;99.90;;;;;;5043979;28;20082;-84
2022/07/21 10:48:06;;;;;;;32.83;26.83;;;23.30;99.90;;;;;;5034035;28;20049;-84
2022/07/21 10:50:37;;;;;;;35.38;27.33;;;23.50;99.90;;;;;;5033252;28;20052;-84
2022/07/21 10:53:11;;;;;;;31.90;25.58;;;23.10;99.90;;;;;;5032728;28;20697;-84
2022/07/21 10:55:37;;;;;;;30.90;24.73;;;23.10;99.90;;;;;;5049026;28;20045;-84
2022/07/21 10:58:32;;;;;;;30.02;23.63;;;23.10;99.90;;;;;;5040414;28;20045;-84
2022/07/21 11:01:19;;;;;;;28.60;23.13;;;23.00;99.90;;;;;;5051852;28;20116;-85
2022/07/21 11:03:45;;;;;;;27.58;22.85;;;23.00;99.90;;;;;;5047845;28;20055;-84
2022/07/21 11:06:25;;;;;;;26.75;20.08;;;23.00;99.90;;;;;;5046479;28;20100;-84
2022/07/21 11:09:20;;;;;;;25.83;20.85;;;23.10;99.90;;;;;;5049616;28;20127;-85
2022/07/21 11:12:06;;;;;;;25.15;21.13;;;23.20;99.90;;;;;;5037752;28;20313;-84
2022/07/21 11:14:37;;;;;;;25.05;20.40;;;23.20;99.90;;;;;;5035448;28;20079;-84
2022/07/21 11:17:03;;;;;;;25.13;21.10;;;23.30;99.90;;;;;;5063325;28;20036;-84
2022/07/21 11:19:52;;;;;;;25.92;19.90;;;23.40;99.90;;;;;;5064539;28;20824;-85
2022/07/21 11:22:23;;;;;;;26.95;20.17;;;23.40;99.90;;;;;;5036040;28;20388;-84
2022/07/21 11:24:51;;;;;;;24.52;19.67;;;23.50;99.90;;;;;;5045071;28;20037;-85
2022/07/21 11:27:23;;;;;;;23.45;19.95;;;23.50;99.90;;;;;;5045495;28;20049;-84
2022/07/21 11:29:50;;;;;;;27.67;20.77;;;23.50;99.90;;;;;;5018008;28;20095;-84
2022/07/21 11:32:17;;;;;;;25.90;19.85;;;23.50;99.90;;;;;;5032323;28;20416;-84
2022/07/21 11:34:55;;;;;;;23.58;18.20;;;23.60;99.90;;;;;;5062370;28;20103;-84
2022/07/21 11:37:31;;;;;;;24.52;19.30;;;23.60;99.90;;;;;;5055569;28;20049;-83
2022/07/21 11:39:58;;;;;;;23.60;18.13;;;23.60;99.90;;;;;;5011986;28;20083;-83
2022/07/21 11:42:25;;;;;;;26.67;19.50;;;23.70;99.90;;;;;;5060602;28;20551;-83
2022/07/21 11:44:51;;;;;;;23.02;18.95;;;24.00;99.90;;;;;;5064487;28;20040;-84
2022/07/21 11:47:20;;;;;;;27.77;21.15;;;23.90;99.90;;;;;;5019177;28;20053;-83
2022/07/21 11:49:46;;;;;;;25.77;21.25;;;23.90;99.90;;;;;;5012830;28;20045;-84
2022/07/21 11:52:20;;;;;;;25.95;19.40;;;24.00;99.90;;;;;;5033339;28;20045;-84
2022/07/21 11:54:47;;;;;;;26.48;21.63;;;24.10;99.90;;;;;;5050480;28;20655;-83
2022/07/21 11:57:14;;;;;;;26.20;20.08;;;24.30;99.90;;;;;;5018782;28;20396;-83
2022/07/21 11:59:41;;;;;;;28.02;23.25;;;24.30;99.90;;;;;;5035642;28;20048;-83
2022/07/21 12:02:12;;;;;;;24.42;20.73;;;24.30;99.90;;;;;;5034446;28;20037;-83
2022/07/21 12:04:45;;;;;;;24.88;21.42;;;24.30;99.90;;;;;;5049225;28;20041;-83
2022/07/21 12:07:42;;;;;;;24.40;21.23;;;24.20;99.90;;;;;;5066438;28;20381;-84
2022/07/21 12:10:09;;;;;;;24.67;19.77;;;24.30;99.90;;;;;;5042883;28;20447;-83
2022/07/21 12:13:02;;;;;;;25.58;22.08;;;24.30;99.90;;;;;;5050216;28;20053;-83
2022/07/21 12:15:33;;;;;;;26.17;20.30;;;24.30;99.90;;;;;;5029457;28;20040;-83
2022/07/21 12:18:06;;;;;;;21.90;19.15;;;24.30;99.90;;;;;;5027073;28;20073;-84
2022/07/21 12:20:34;;;;;;;22.35;16.92;;;24.40;99.90;;;;;;5063015;28;20160;-83
2022/07/21 12:23:23;;;;;;;20.23;15.88;;;24.40;99.90;;;;;;5038040;28;20045;-84
2022/07/21 12:25:49;;;;;;;18.52;15.15;;;24.50;99.90;;;;;;5029516;28;20041;-85
2022/07/21 12:28:15;;;;;;;22.40;17.83;;;24.40;99.90;;;;;;5049284;28;20489;-82
2022/07/21 12:30:46;;;;;;;27.75;21.67;;;24.60;99.90;;;;;;5050117;28;20116;-82
2022/07/21 12:33:16;;;;;;;24.20;19.90;;;24.40;99.90;;;;;;5051693;28;20080;-81
2022/07/21 12:35:44;;;;;;;26.17;19.73;;;24.40;99.90;;;;;;5046923;28;20119;-81